sensor_id;sensor_type;location;lat;lon;timestamp;temperature;humidity
7196;DHT22;3639;51.308;5.624;2023-02-26T00:00:12;0.10;99.90
7196;DHT22;3639;51.308;5.624;2023-02-26T00:02:40;0.00;99.90
7196;DHT22;3639;51.308;5.624;2023-02-26T00:05:07;0.00;99.90
7196;DHT22;3639;51.308;5.624;2023-02-26T00:07:33;0.00;99.90
7196;DHT22;3639;51.308;5.624;2023-02-26T00:09:59;0.00;99.90
7196;DHT22;3639;51.308;5.624;2023-02-26T00:12:29;0.00;99.90
7196;DHT22;3639;51.308;5.624;2023-02-26T00:14:55;0.00;99.90
7196;DHT22;3639;51.308;5.624;2023-02-26T00:22:42;0.00;99.90
7196;DHT22;3639;51.308;5.624;2023-02-26T00:25:08;0.00;99.90
7196;DHT22;3639;51.308;5.624;2023-02-26T00:27:35;0.00;99.90
7196;DHT22;3639;51.308;5.624;2023-02-26T00:30:02;0.00;99.90
7196;DHT22;3639;51.308;5.624;2023-02-26T00:32:28;0.00;99.90
7196;DHT22;3639;51.308;5.624;2023-02-26T00:34:54;0.00;99.90
7196;DHT22;3639;51.308;5.624;2023-02-26T00:42:52;0.00;99.90
7196;DHT22;3639;51.308;5.624;2023-02-26T00:45:18;0.00;99.90
7196;DHT22;3639;51.308;5.624;2023-02-26T00:50:58;-0.10;99.90
7196;DHT22;3639;51.308;5.624;2023-02-26T00:53:52;0.00;99.90
7196;DHT22;3639;51.308;5.624;2023-02-26T00:56:22;0.00;99.90
7196;DHT22;3639;51.308;5.624;2023-02-26T00:58:48;-0.10;99.90
7196;DHT22;3639;51.308;5.624;2023-02-26T01:01:13;-0.10;99.90
7196;DHT22;3639;51.308;5.624;2023-02-26T01:03:39;-0.10;99.90
7196;DHT22;3639;51.308;5.624;2023-02-26T01:06:10;-0.10;99.90
7196;DHT22;3639;51.308;5.624;2023-02-26T01:08:47;-0.10;99.90
7196;DHT22;3639;51.308;5.624;2023-02-26T01:11:17;-0.10;99.90
7196;DHT22;3639;51.308;5.624;2023-02-26T01:13:43;-0.10;99.90
7196;DHT22;3639;51.308;5.624;2023-02-26T01:16:15;-0.10;99.90
7196;DHT22;3639;51.308;5.624;2023-02-26T01:19:02;-0.10;99.90
7196;DHT22;3639;51.308;5.624;2023-02-26T01:21:36;-0.20;99.90
7196;DHT22;3639;51.308;5.624;2023-02-26T01:24:07;-0.20;99.90
7196;DHT22;3639;51.308;5.624;2023-02-26T01:26:35;-0.30;99.90
7196;DHT22;3639;51.308;5.624;2023-02-26T01:29:01;-0.30;99.90
7196;DHT22;3639;51.308;5.624;2023-02-26T01:31:49;-0.30;99.90
7196;DHT22;3639;51.308;5.624;2023-02-26T01:34:34;-0.30;99.90
7196;DHT22;3639;51.308;5.624;2023-02-26T01:37:19;-0.30;99.90
7196;DHT22;3639;51.308;5.624;2023-02-26T01:42:43;-0.40;99.90
7196;DHT22;3639;51.308;5.624;2023-02-26T01:45:16;-0.40;99.90
7196;DHT22;3639;51.308;5.624;2023-02-26T01:47:58;-0.30;99.90
7196;DHT22;3639;51.308;5.624;2023-02-26T01:50:26;-0.20;99.90
7196;DHT22;3639;51.308;5.624;2023-02-26T01:55:26;-0.30;99.90
7196;DHT22;3639;51.308;5.624;2023-02-26T01:57:55;-0.30;99.90
7196;DHT22;3639;51.308;5.624;2023-02-26T02:00:21;-0.40;99.90
7196;DHT22;3639;51.308;5.624;2023-02-26T02:02:49;-0.40;99.90
7196;DHT22;3639;51.308;5.624;2023-02-26T02:05:28;-0.40;99.90
7196;DHT22;3639;51.308;5.624;2023-02-26T02:07:56;-0.40;99.90
7196;DHT22;3639;51.308;5.624;2023-02-26T02:10:22;-0.50;99.90
7196;DHT22;3639;51.308;5.624;2023-02-26T02:23:02;-0.70;99.90
7196;DHT22;3639;51.308;5.624;2023-02-26T02:30:55;-0.60;99.90
7196;DHT22;3639;51.308;5.624;2023-02-26T02:33:23;-0.70;99.90
7196;DHT22;3639;51.308;5.624;2023-02-26T02:36:42;-0.70;99.90
7196;DHT22;3639;51.308;5.624;2023-02-26T02:39:01;-0.70;99.90
7196;DHT22;3639;51.308;5.624;2023-02-26T02:41:33;-0.80;99.90
7196;DHT22;3639;51.308;5.624;2023-02-26T02:44:02;-0.80;99.90
7196;DHT22;3639;51.308;5.624;2023-02-26T02:46:31;-0.70;99.90
7196;DHT22;3639;51.308;5.624;2023-02-26T02:49:01;-0.80;99.90
7196;DHT22;3639;51.308;5.624;2023-02-26T02:51:35;-0.80;99.90
7196;DHT22;3639;51.308;5.624;2023-02-26T02:54:16;-0.80;99.90
7196;DHT22;3639;51.308;5.624;2023-02-26T02:56:54;-0.80;99.90
7196;DHT22;3639;51.308;5.624;2023-02-26T02:59:55;-0.80;99.90
7196;DHT22;3639;51.308;5.624;2023-02-26T03:04:56;-0.70;99.90
7196;DHT22;3639;51.308;5.624;2023-02-26T03:07:22;-0.70;99.90
7196;DHT22;3639;51.308;5.624;2023-02-26T03:09:48;-0.70;99.90
7196;DHT22;3639;51.308;5.624;2023-02-26T03:12:14;-0.70;99.90
7196;DHT22;3639;51.308;5.624;2023-02-26T03:14:40;-0.70;99.90
7196;DHT22;3639;51.308;5.624;2023-02-26T03:17:32;-0.80;99.90
7196;DHT22;3639;51.308;5.624;2023-02-26T03:20:31;-0.80;99.90
7196;DHT22;3639;51.308;5.624;2023-02-26T03:23:13;-0.90;99.90
7196;DHT22;3639;51.308;5.624;2023-02-26T03:25:49;-0.90;99.90
7196;DHT22;3639;51.308;5.624;2023-02-26T03:28:30;-0.90;99.90
7196;DHT22;3639;51.308;5.624;2023-02-26T03:31:06;-0.90;99.90
7196;DHT22;3639;51.308;5.624;2023-02-26T03:42:03;-1.10;99.90
7196;DHT22;3639;51.308;5.624;2023-02-26T03:44:31;-1.10;99.90
7196;DHT22;3639;51.308;5.624;2023-02-26T03:47:01;-1.10;99.90
7196;DHT22;3639;51.308;5.624;2023-02-26T03:49:49;-1.10;99.90
7196;DHT22;3639;51.308;5.624;2023-02-26T03:52:19;-1.10;99.90
7196;DHT22;3639;51.308;5.624;2023-02-26T03:54:58;-1.10;99.90
7196;DHT22;3639;51.308;5.624;2023-02-26T03:57:24;-1.00;99.90
7196;DHT22;3639;51.308;5.624;2023-02-26T03:59:50;-1.00;99.90
7196;DHT22;3639;51.308;5.624;2023-02-26T04:02:26;-1.00;99.90
7196;DHT22;3639;51.308;5.624;2023-02-26T04:04:59;-1.00;99.90
7196;DHT22;3639;51.308;5.624;2023-02-26T04:07:26;-1.10;99.90
7196;DHT22;3639;51.308;5.624;2023-02-26T04:09:52;-1.10;99.90
7196;DHT22;3639;51.308;5.624;2023-02-26T04:12:22;-1.10;99.90
7196;DHT22;3639;51.308;5.624;2023-02-26T04:14:48;-1.10;99.90
7196;DHT22;3639;51.308;5.624;2023-02-26T04:17:14;-1.10;99.90
7196;DHT22;3639;51.308;5.624;2023-02-26T04:19:40;-1.10;99.90
7196;DHT22;3639;51.308;5.624;2023-02-26T04:22:05;-1.10;99.90
7196;DHT22;3639;51.308;5.624;2023-02-26T04:24:31;-1.10;99.90
7196;DHT22;3639;51.308;5.624;2023-02-26T04:26:57;-1.10;99.90
7196;DHT22;3639;51.308;5.624;2023-02-26T04:29:22;-1.10;99.90
7196;DHT22;3639;51.308;5.624;2023-02-26T04:31:48;-1.10;99.90
7196;DHT22;3639;51.308;5.624;2023-02-26T04:34:14;-1.10;99.90
7196;DHT22;3639;51.308;5.624;2023-02-26T04:36:39;-1.10;99.90
7196;DHT22;3639;51.308;5.624;2023-02-26T04:39:05;-1.20;99.90
7196;DHT22;3639;51.308;5.624;2023-02-26T04:41:31;-1.20;99.90
7196;DHT22;3639;51.308;5.624;2023-02-26T04:43:57;-1.20;99.90
7196;DHT22;3639;51.308;5.624;2023-02-26T04:46:22;-1.30;99.90
7196;DHT22;3639;51.308;5.624;2023-02-26T04:48:48;-1.30;99.90
7196;DHT22;3639;51.308;5.624;2023-02-26T04:51:14;-1.30;99.90
7196;DHT22;3639;51.308;5.624;2023-02-26T04:53:39;-1.30;99.90
7196;DHT22;3639;51.308;5.624;2023-02-26T04:56:05;-1.40;99.90
7196;DHT22;3639;51.308;5.624;2023-02-26T04:58:32;-1.40;99.90
7196;DHT22;3639;51.308;5.624;2023-02-26T05:00:57;-1.40;99.90
7196;DHT22;3639;51.308;5.624;2023-02-26T05:03:23;-1.40;99.90
7196;DHT22;3639;51.308;5.624;2023-02-26T05:05:49;-1.40;99.90
7196;DHT22;3639;51.308;5.624;2023-02-26T05:08:14;-1.40;99.90
7196;DHT22;3639;51.308;5.624;2023-02-26T05:10:40;-1.50;99.90
7196;DHT22;3639;51.308;5.624;2023-02-26T05:13:05;-1.60;99.90
7196;DHT22;3639;51.308;5.624;2023-02-26T05:15:31;-1.60;99.90
7196;DHT22;3639;51.308;5.624;2023-02-26T05:17:57;-1.60;99.90
7196;DHT22;3639;51.308;5.624;2023-02-26T05:20:23;-1.60;99.90
7196;DHT22;3639;51.308;5.624;2023-02-26T05:22:48;-1.60;99.90
7196;DHT22;3639;51.308;5.624;2023-02-26T05:25:14;-1.60;99.90
7196;DHT22;3639;51.308;5.624;2023-02-26T05:27:41;-1.60;99.90
7196;DHT22;3639;51.308;5.624;2023-02-26T05:30:08;-1.60;99.90
7196;DHT22;3639;51.308;5.624;2023-02-26T05:32:34;-1.60;99.90
7196;DHT22;3639;51.308;5.624;2023-02-26T05:35:00;-1.70;99.90
7196;DHT22;3639;51.308;5.624;2023-02-26T05:37:26;-1.80;99.90
7196;DHT22;3639;51.308;5.624;2023-02-26T05:39:52;-1.80;99.90
7196;DHT22;3639;51.308;5.624;2023-02-26T05:42:17;-1.80;99.90
7196;DHT22;3639;51.308;5.624;2023-02-26T05:44:43;-1.80;99.90
7196;DHT22;3639;51.308;5.624;2023-02-26T05:47:09;-1.80;99.90
7196;DHT22;3639;51.308;5.624;2023-02-26T05:49:34;-1.80;99.90
7196;DHT22;3639;51.308;5.624;2023-02-26T05:52:00;-1.80;99.90
7196;DHT22;3639;51.308;5.624;2023-02-26T05:54:26;-1.90;99.90
7196;DHT22;3639;51.308;5.624;2023-02-26T05:56:51;-1.90;99.90
7196;DHT22;3639;51.308;5.624;2023-02-26T05:59:17;-1.90;99.90
7196;DHT22;3639;51.308;5.624;2023-02-26T06:01:43;-2.00;99.90
7196;DHT22;3639;51.308;5.624;2023-02-26T06:04:09;-1.90;99.90
7196;DHT22;3639;51.308;5.624;2023-02-26T06:06:34;-1.90;99.90
7196;DHT22;3639;51.308;5.624;2023-02-26T06:09:00;-1.90;99.90
7196;DHT22;3639;51.308;5.624;2023-02-26T06:11:27;-1.90;99.90
7196;DHT22;3639;51.308;5.624;2023-02-26T06:13:54;-1.90;99.90
7196;DHT22;3639;51.308;5.624;2023-02-26T06:16:20;-1.90;99.90
7196;DHT22;3639;51.308;5.624;2023-02-26T06:18:46;-1.90;99.90
7196;DHT22;3639;51.308;5.624;2023-02-26T06:21:12;-1.90;99.90
7196;DHT22;3639;51.308;5.624;2023-02-26T06:23:38;-1.90;99.90
7196;DHT22;3639;51.308;5.624;2023-02-26T06:26:04;-1.90;99.90
7196;DHT22;3639;51.308;5.624;2023-02-26T06:28:30;-1.90;99.90
7196;DHT22;3639;51.308;5.624;2023-02-26T06:30:56;-1.90;99.90
7196;DHT22;3639;51.308;5.624;2023-02-26T06:33:22;-1.90;99.90
7196;DHT22;3639;51.308;5.624;2023-02-26T06:35:48;-1.90;99.90
7196;DHT22;3639;51.308;5.624;2023-02-26T06:38:14;-1.90;99.90
7196;DHT22;3639;51.308;5.624;2023-02-26T06:40:40;-2.00;99.90
7196;DHT22;3639;51.308;5.624;2023-02-26T06:43:05;-2.00;99.90
7196;DHT22;3639;51.308;5.624;2023-02-26T06:45:31;-1.90;99.90
7196;DHT22;3639;51.308;5.624;2023-02-26T06:47:57;-1.90;99.90
7196;DHT22;3639;51.308;5.624;2023-02-26T06:50:22;-1.90;99.90
7196;DHT22;3639;51.308;5.624;2023-02-26T06:52:48;-1.90;99.90
7196;DHT22;3639;51.308;5.624;2023-02-26T06:55:14;-1.90;99.90
7196;DHT22;3639;51.308;5.624;2023-02-26T06:57:39;-1.90;99.90
7196;DHT22;3639;51.308;5.624;2023-02-26T07:00:06;-1.90;99.90
7196;DHT22;3639;51.308;5.624;2023-02-26T07:02:32;-1.90;99.90
7196;DHT22;3639;51.308;5.624;2023-02-26T07:04:58;-1.80;99.90
7196;DHT22;3639;51.308;5.624;2023-02-26T07:07:24;-1.80;99.90
7196;DHT22;3639;51.308;5.624;2023-02-26T07:09:49;-1.80;99.90
7196;DHT22;3639;51.308;5.624;2023-02-26T07:12:15;-1.80;99.90
7196;DHT22;3639;51.308;5.624;2023-02-26T07:14:41;-1.80;99.90
7196;DHT22;3639;51.308;5.624;2023-02-26T07:17:11;-1.70;99.90
7196;DHT22;3639;51.308;5.624;2023-02-26T07:19:48;-1.70;99.90
7196;DHT22;3639;51.308;5.624;2023-02-26T07:22:14;-1.60;99.90
7196;DHT22;3639;51.308;5.624;2023-02-26T07:24:41;-1.60;99.90
7196;DHT22;3639;51.308;5.624;2023-02-26T07:27:07;-1.50;99.90
7196;DHT22;3639;51.308;5.624;2023-02-26T07:29:32;-1.50;99.90
7196;DHT22;3639;51.308;5.624;2023-02-26T07:31:58;-1.40;99.90
7196;DHT22;3639;51.308;5.624;2023-02-26T07:34:24;-1.30;99.90
7196;DHT22;3639;51.308;5.624;2023-02-26T07:36:49;-1.30;99.90
7196;DHT22;3639;51.308;5.624;2023-02-26T07:39:15;-1.20;99.90
7196;DHT22;3639;51.308;5.624;2023-02-26T07:41:40;-1.20;99.90
7196;DHT22;3639;51.308;5.624;2023-02-26T07:44:06;-1.10;99.90
7196;DHT22;3639;51.308;5.624;2023-02-26T07:46:31;-1.10;99.90
7196;DHT22;3639;51.308;5.624;2023-02-26T07:48:57;-1.00;99.90
7196;DHT22;3639;51.308;5.624;2023-02-26T07:51:23;-0.90;99.90
7196;DHT22;3639;51.308;5.624;2023-02-26T07:53:48;-0.90;99.90
7196;DHT22;3639;51.308;5.624;2023-02-26T07:56:14;-0.70;99.90
7196;DHT22;3639;51.308;5.624;2023-02-26T07:58:40;-0.60;99.90
7196;DHT22;3639;51.308;5.624;2023-02-26T08:01:05;-0.50;99.90
7196;DHT22;3639;51.308;5.624;2023-02-26T08:03:31;-0.50;99.90
7196;DHT22;3639;51.308;5.624;2023-02-26T08:05:57;-0.40;99.90
7196;DHT22;3639;51.308;5.624;2023-02-26T08:08:25;-0.40;99.90
7196;DHT22;3639;51.308;5.624;2023-02-26T08:10:51;-0.20;99.90
7196;DHT22;3639;51.308;5.624;2023-02-26T08:13:17;-0.10;99.90
7196;DHT22;3639;51.308;5.624;2023-02-26T08:15:43;-0.10;99.90
7196;DHT22;3639;51.308;5.624;2023-02-26T08:18:09;0.00;99.90
7196;DHT22;3639;51.308;5.624;2023-02-26T08:20:35;0.10;99.90
7196;DHT22;3639;51.308;5.624;2023-02-26T08:23:01;0.20;99.90
7196;DHT22;3639;51.308;5.624;2023-02-26T08:25:26;0.20;99.90
7196;DHT22;3639;51.308;5.624;2023-02-26T08:27:52;0.30;99.90
7196;DHT22;3639;51.308;5.624;2023-02-26T08:30:18;0.30;99.90
7196;DHT22;3639;51.308;5.624;2023-02-26T08:32:43;0.40;99.90
7196;DHT22;3639;51.308;5.624;2023-02-26T08:35:10;0.50;99.90
7196;DHT22;3639;51.308;5.624;2023-02-26T08:37:37;0.50;99.90
7196;DHT22;3639;51.308;5.624;2023-02-26T08:40:05;0.60;99.90
7196;DHT22;3639;51.308;5.624;2023-02-26T08:42:31;0.70;99.90
7196;DHT22;3639;51.308;5.624;2023-02-26T08:44:57;0.70;99.90
7196;DHT22;3639;51.308;5.624;2023-02-26T08:47:22;0.80;99.90
7196;DHT22;3639;51.308;5.624;2023-02-26T08:49:48;0.80;99.90
7196;DHT22;3639;51.308;5.624;2023-02-26T08:52:14;0.90;99.90
7196;DHT22;3639;51.308;5.624;2023-02-26T08:54:39;1.00;99.90
7196;DHT22;3639;51.308;5.624;2023-02-26T08:57:05;1.00;99.90
7196;DHT22;3639;51.308;5.624;2023-02-26T08:59:30;1.10;99.90
7196;DHT22;3639;51.308;5.624;2023-02-26T09:01:56;1.20;99.90
7196;DHT22;3639;51.308;5.624;2023-02-26T09:04:22;1.30;99.90
7196;DHT22;3639;51.308;5.624;2023-02-26T09:06:48;1.30;99.90
7196;DHT22;3639;51.308;5.624;2023-02-26T09:09:13;1.40;99.90
7196;DHT22;3639;51.308;5.624;2023-02-26T09:11:39;1.40;99.90
7196;DHT22;3639;51.308;5.624;2023-02-26T09:14:05;1.50;99.90
7196;DHT22;3639;51.308;5.624;2023-02-26T09:16:31;1.50;99.90
7196;DHT22;3639;51.308;5.624;2023-02-26T09:19:00;1.60;99.90
7196;DHT22;3639;51.308;5.624;2023-02-26T09:21:25;1.70;99.90
7196;DHT22;3639;51.308;5.624;2023-02-26T09:23:51;1.80;99.90
7196;DHT22;3639;51.308;5.624;2023-02-26T09:26:16;1.90;99.90
7196;DHT22;3639;51.308;5.624;2023-02-26T09:28:42;1.90;99.90
7196;DHT22;3639;51.308;5.624;2023-02-26T09:31:08;1.90;99.90
7196;DHT22;3639;51.308;5.624;2023-02-26T09:33:34;2.00;99.90
7196;DHT22;3639;51.308;5.624;2023-02-26T09:36:01;2.10;99.90
7196;DHT22;3639;51.308;5.624;2023-02-26T09:38:27;2.20;99.90
7196;DHT22;3639;51.308;5.624;2023-02-26T09:46:18;2.30;99.90
7196;DHT22;3639;51.308;5.624;2023-02-26T09:48:47;2.20;99.90
7196;DHT22;3639;51.308;5.624;2023-02-26T09:51:18;2.30;99.90
7196;DHT22;3639;51.308;5.624;2023-02-26T09:53:47;2.30;99.90
7196;DHT22;3639;51.308;5.624;2023-02-26T09:56:17;2.40;99.90
7196;DHT22;3639;51.308;5.624;2023-02-26T09:58:43;2.50;99.90
7196;DHT22;3639;51.308;5.624;2023-02-26T10:09:17;2.70;99.90
7196;DHT22;3639;51.308;5.624;2023-02-26T10:11:51;2.70;99.90
7196;DHT22;3639;51.308;5.624;2023-02-26T10:20:14;2.80;99.60
7196;DHT22;3639;51.308;5.624;2023-02-26T10:25:47;2.80;99.80
7196;DHT22;3639;51.308;5.624;2023-02-26T10:28:25;3.00;99.20
7196;DHT22;3639;51.308;5.624;2023-02-26T10:36:28;3.50;98.20
7196;DHT22;3639;51.308;5.624;2023-02-26T10:39:15;3.60;97.80
7196;DHT22;3639;51.308;5.624;2023-02-26T10:41:45;3.80;97.60
7196;DHT22;3639;51.308;5.624;2023-02-26T10:44:19;3.70;96.20
7196;DHT22;3639;51.308;5.624;2023-02-26T10:51:53;3.20;96.60
7196;DHT22;3639;51.308;5.624;2023-02-26T10:54:32;3.00;96.60
7196;DHT22;3639;51.308;5.624;2023-02-26T10:56:59;3.00;96.40
7196;DHT22;3639;51.308;5.624;2023-02-26T10:59:26;3.20;96.60
7196;DHT22;3639;51.308;5.624;2023-02-26T11:01:53;3.10;96.00
7196;DHT22;3639;51.308;5.624;2023-02-26T11:04:25;3.20;96.60
7196;DHT22;3639;51.308;5.624;2023-02-26T11:07:00;3.20;96.10
7196;DHT22;3639;51.308;5.624;2023-02-26T11:09:38;3.30;96.20
7196;DHT22;3639;51.308;5.624;2023-02-26T11:12:06;3.30;94.50
7196;DHT22;3639;51.308;5.624;2023-02-26T11:14:42;3.20;94.40
7196;DHT22;3639;51.308;5.624;2023-02-26T11:17:19;3.30;94.70
7196;DHT22;3639;51.308;5.624;2023-02-26T11:19:52;3.30;95.10
7196;DHT22;3639;51.308;5.624;2023-02-26T11:22:20;3.20;94.40
7196;DHT22;3639;51.308;5.624;2023-02-26T11:24:48;3.10;94.90
7196;DHT22;3639;51.308;5.624;2023-02-26T11:27:35;3.00;95.10
7196;DHT22;3639;51.308;5.624;2023-02-26T11:30:17;2.90;95.80
7196;DHT22;3639;51.308;5.624;2023-02-26T11:32:44;2.90;95.70
7196;DHT22;3639;51.308;5.624;2023-02-26T11:35:14;3.00;95.70
7196;DHT22;3639;51.308;5.624;2023-02-26T11:37:46;3.00;95.50
7196;DHT22;3639;51.308;5.624;2023-02-26T11:40:37;3.10;95.90
7196;DHT22;3639;51.308;5.624;2023-02-26T11:43:15;3.10;96.00
7196;DHT22;3639;51.308;5.624;2023-02-26T11:45:46;3.30;96.30
7196;DHT22;3639;51.308;5.624;2023-02-26T11:48:20;3.50;95.90
7196;DHT22;3639;51.308;5.624;2023-02-26T11:50:52;3.60;95.90
7196;DHT22;3639;51.308;5.624;2023-02-26T11:56:00;3.80;94.40
7196;DHT22;3639;51.308;5.624;2023-02-26T11:58:29;3.70;93.90
7196;DHT22;3639;51.308;5.624;2023-02-26T12:01:00;3.70;94.00
7196;DHT22;3639;51.308;5.624;2023-02-26T12:03:30;3.70;94.20
7196;DHT22;3639;51.308;5.624;2023-02-26T12:05:57;3.70;94.20
7196;DHT22;3639;51.308;5.624;2023-02-26T12:08:36;3.80;94.80
7196;DHT22;3639;51.308;5.624;2023-02-26T12:14:11;3.90;94.80
7196;DHT22;3639;51.308;5.624;2023-02-26T12:17:07;4.10;95.30
7196;DHT22;3639;51.308;5.624;2023-02-26T12:33:28;3.90;92.70
7196;DHT22;3639;51.308;5.624;2023-02-26T12:36:10;4.00;91.50
7196;DHT22;3639;51.308;5.624;2023-02-26T12:47:17;3.90;91.50
7196;DHT22;3639;51.308;5.624;2023-02-26T13:00:50;4.30;90.90
7196;DHT22;3639;51.308;5.624;2023-02-26T13:06:32;4.20;90.50
7196;DHT22;3639;51.308;5.624;2023-02-26T13:09:03;4.10;90.70
7196;DHT22;3639;51.308;5.624;2023-02-26T13:20:08;4.10;90.20
7196;DHT22;3639;51.308;5.624;2023-02-26T13:22:40;4.10;90.90
7196;DHT22;3639;51.308;5.624;2023-02-26T13:25:38;4.20;91.50
7196;DHT22;3639;51.308;5.624;2023-02-26T13:30:55;4.20;90.50
7196;DHT22;3639;51.308;5.624;2023-02-26T13:33:26;4.10;90.40
7196;DHT22;3639;51.308;5.624;2023-02-26T13:35:54;4.20;90.80
7196;DHT22;3639;51.308;5.624;2023-02-26T13:41:16;4.20;90.40
7196;DHT22;3639;51.308;5.624;2023-02-26T13:51:52;4.40;90.80
7196;DHT22;3639;51.308;5.624;2023-02-26T14:00:24;4.40;86.10
7196;DHT22;3639;51.308;5.624;2023-02-26T14:02:53;4.50;87.30
7196;DHT22;3639;51.308;5.624;2023-02-26T14:11:21;4.60;87.00
7196;DHT22;3639;51.308;5.624;2023-02-26T14:14:18;4.70;88.80
7196;DHT22;3639;51.308;5.624;2023-02-26T14:19:42;4.80;87.10
7196;DHT22;3639;51.308;5.624;2023-02-26T14:22:42;4.90;88.40
7196;DHT22;3639;51.308;5.624;2023-02-26T14:31:18;5.10;88.60
7196;DHT22;3639;51.308;5.624;2023-02-26T14:34:14;4.90;89.90
7196;DHT22;3639;51.308;5.624;2023-02-26T14:39:30;4.80;88.60
7196;DHT22;3639;51.308;5.624;2023-02-26T14:42:22;4.80;87.80
7196;DHT22;3639;51.308;5.624;2023-02-26T14:44:51;4.80;88.70
7196;DHT22;3639;51.308;5.624;2023-02-26T14:47:19;4.90;87.70
7196;DHT22;3639;51.308;5.624;2023-02-26T14:49:46;4.90;86.70
7196;DHT22;3639;51.308;5.624;2023-02-26T15:24:47;4.90;87.40
7196;DHT22;3639;51.308;5.624;2023-02-26T15:27:18;4.80;87.30
7196;DHT22;3639;51.308;5.624;2023-02-26T15:29:44;4.90;88.00
7196;DHT22;3639;51.308;5.624;2023-02-26T15:32:28;4.90;87.70
7196;DHT22;3639;51.308;5.624;2023-02-26T15:35:00;4.90;87.60
7196;DHT22;3639;51.308;5.624;2023-02-26T15:37:28;4.90;88.50
7196;DHT22;3639;51.308;5.624;2023-02-26T15:39:58;5.00;89.80
7196;DHT22;3639;51.308;5.624;2023-02-26T15:42:29;4.90;89.20
7196;DHT22;3639;51.308;5.624;2023-02-26T15:44:59;4.90;88.50
7196;DHT22;3639;51.308;5.624;2023-02-26T15:47:27;4.90;89.20
7196;DHT22;3639;51.308;5.624;2023-02-26T15:49:54;4.90;89.00
7196;DHT22;3639;51.308;5.624;2023-02-26T15:52:24;4.90;87.70
7196;DHT22;3639;51.308;5.624;2023-02-26T15:54:59;4.80;87.70
7196;DHT22;3639;51.308;5.624;2023-02-26T15:57:26;4.70;88.50
7196;DHT22;3639;51.308;5.624;2023-02-26T15:59:59;4.70;89.70
7196;DHT22;3639;51.308;5.624;2023-02-26T16:02:28;4.70;90.30
7196;DHT22;3639;51.308;5.624;2023-02-26T16:04:54;4.70;90.40
7196;DHT22;3639;51.308;5.624;2023-02-26T16:07:20;4.70;90.40
7196;DHT22;3639;51.308;5.624;2023-02-26T16:09:49;4.70;90.30
7196;DHT22;3639;51.308;5.624;2023-02-26T16:12:21;4.60;90.50
7196;DHT22;3639;51.308;5.624;2023-02-26T16:14:52;4.60;90.20
7196;DHT22;3639;51.308;5.624;2023-02-26T16:17:31;4.60;88.80
7196;DHT22;3639;51.308;5.624;2023-02-26T16:20:02;4.60;89.60
7196;DHT22;3639;51.308;5.624;2023-02-26T16:22:52;4.60;90.00
7196;DHT22;3639;51.308;5.624;2023-02-26T16:25:24;4.60;89.80
7196;DHT22;3639;51.308;5.624;2023-02-26T16:28:18;4.50;90.00
7196;DHT22;3639;51.308;5.624;2023-02-26T16:30:48;4.50;90.00
7196;DHT22;3639;51.308;5.624;2023-02-26T16:33:16;4.50;90.50
7196;DHT22;3639;51.308;5.624;2023-02-26T16:35:52;4.50;90.40
7196;DHT22;3639;51.308;5.624;2023-02-26T16:38:29;4.40;90.50
7196;DHT22;3639;51.308;5.624;2023-02-26T16:41:07;4.30;90.50
7196;DHT22;3639;51.308;5.624;2023-02-26T16:43:56;4.30;90.70
7196;DHT22;3639;51.308;5.624;2023-02-26T16:46:42;4.30;90.90
7196;DHT22;3639;51.308;5.624;2023-02-26T16:49:31;4.20;91.30
7196;DHT22;3639;51.308;5.624;2023-02-26T16:51:58;4.10;91.20
7196;DHT22;3639;51.308;5.624;2023-02-26T16:54:26;4.10;91.70
7196;DHT22;3639;51.308;5.624;2023-02-26T16:57:17;4.00;91.90
7196;DHT22;3639;51.308;5.624;2023-02-26T16:59:57;3.90;91.90
7196;DHT22;3639;51.308;5.624;2023-02-26T17:02:26;3.90;92.10
7196;DHT22;3639;51.308;5.624;2023-02-26T17:04:58;3.80;92.10
7196;DHT22;3639;51.308;5.624;2023-02-26T17:07:30;3.70;92.20
7196;DHT22;3639;51.308;5.624;2023-02-26T17:09:59;3.70;92.50
7196;DHT22;3639;51.308;5.624;2023-02-26T17:12:43;3.70;92.60
7196;DHT22;3639;51.308;5.624;2023-02-26T17:15:27;3.60;92.80
7196;DHT22;3639;51.308;5.624;2023-02-26T17:17:52;3.40;93.00
7196;DHT22;3639;51.308;5.624;2023-02-26T17:20:22;3.40;93.30
7196;DHT22;3639;51.308;5.624;2023-02-26T17:22:48;3.30;93.40
7196;DHT22;3639;51.308;5.624;2023-02-26T17:25:16;3.20;93.70
7196;DHT22;3639;51.308;5.624;2023-02-26T17:27:43;3.20;93.60
7196;DHT22;3639;51.308;5.624;2023-02-26T17:30:12;3.10;93.80
7196;DHT22;3639;51.308;5.624;2023-02-26T17:32:40;3.10;94.10
7196;DHT22;3639;51.308;5.624;2023-02-26T17:35:07;3.00;94.00
7196;DHT22;3639;51.308;5.624;2023-02-26T17:37:33;2.90;94.40
7196;DHT22;3639;51.308;5.624;2023-02-26T17:40:01;2.90;94.70
7196;DHT22;3639;51.308;5.624;2023-02-26T17:42:28;2.80;94.80
7196;DHT22;3639;51.308;5.624;2023-02-26T17:44:53;2.70;94.90
7196;DHT22;3639;51.308;5.624;2023-02-26T17:47:25;2.70;95.00
7196;DHT22;3639;51.308;5.624;2023-02-26T17:49:51;2.60;95.00
7196;DHT22;3639;51.308;5.624;2023-02-26T17:52:18;2.60;95.00
7196;DHT22;3639;51.308;5.624;2023-02-26T17:54:44;2.60;95.30
7196;DHT22;3639;51.308;5.624;2023-02-26T17:57:17;2.50;95.50
7196;DHT22;3639;51.308;5.624;2023-02-26T17:59:43;2.50;95.50
7196;DHT22;3639;51.308;5.624;2023-02-26T18:02:35;2.40;95.60
7196;DHT22;3639;51.308;5.624;2023-02-26T18:05:01;2.30;95.70
7196;DHT22;3639;51.308;5.624;2023-02-26T18:07:26;2.30;95.70
7196;DHT22;3639;51.308;5.624;2023-02-26T18:09:52;2.20;95.80
7196;DHT22;3639;51.308;5.624;2023-02-26T18:12:20;2.20;96.00
7196;DHT22;3639;51.308;5.624;2023-02-26T18:14:46;2.20;96.10
7196;DHT22;3639;51.308;5.624;2023-02-26T18:17:14;2.20;96.00
7196;DHT22;3639;51.308;5.624;2023-02-26T18:19:41;2.20;96.20
7196;DHT22;3639;51.308;5.624;2023-02-26T18:22:14;2.20;96.30
7196;DHT22;3639;51.308;5.624;2023-02-26T18:24:40;2.20;96.30
7196;DHT22;3639;51.308;5.624;2023-02-26T18:27:10;2.20;96.30
7196;DHT22;3639;51.308;5.624;2023-02-26T18:29:37;2.10;96.40
7196;DHT22;3639;51.308;5.624;2023-02-26T18:32:03;2.10;96.60
7196;DHT22;3639;51.308;5.624;2023-02-26T18:34:28;2.10;96.70
7196;DHT22;3639;51.308;5.624;2023-02-26T18:36:54;2.10;96.80
7196;DHT22;3639;51.308;5.624;2023-02-26T18:39:20;2.00;96.80
7196;DHT22;3639;51.308;5.624;2023-02-26T18:41:46;2.00;97.00
7196;DHT22;3639;51.308;5.624;2023-02-26T18:44:11;1.90;97.10
7196;DHT22;3639;51.308;5.624;2023-02-26T18:46:37;1.90;97.30
7196;DHT22;3639;51.308;5.624;2023-02-26T18:49:07;1.80;97.40
7196;DHT22;3639;51.308;5.624;2023-02-26T18:51:37;1.80;97.40
7196;DHT22;3639;51.308;5.624;2023-02-26T18:54:02;1.80;97.50
7196;DHT22;3639;51.308;5.624;2023-02-26T18:56:28;1.80;97.50
7196;DHT22;3639;51.308;5.624;2023-02-26T18:58:54;1.80;97.60
7196;DHT22;3639;51.308;5.624;2023-02-26T19:01:19;1.80;97.70
7196;DHT22;3639;51.308;5.624;2023-02-26T19:03:45;1.70;97.80
7196;DHT22;3639;51.308;5.624;2023-02-26T19:06:11;1.80;97.90
7196;DHT22;3639;51.308;5.624;2023-02-26T19:08:36;1.70;98.00
7196;DHT22;3639;51.308;5.624;2023-02-26T19:11:02;1.70;98.10
7196;DHT22;3639;51.308;5.624;2023-02-26T19:13:28;1.60;98.20
7196;DHT22;3639;51.308;5.624;2023-02-26T19:15:54;1.60;98.30
7196;DHT22;3639;51.308;5.624;2023-02-26T19:18:19;1.70;98.40
7196;DHT22;3639;51.308;5.624;2023-02-26T19:20:45;1.70;98.50
7196;DHT22;3639;51.308;5.624;2023-02-26T19:23:12;1.70;98.80
7196;DHT22;3639;51.308;5.624;2023-02-26T19:25:38;1.80;98.70
7196;DHT22;3639;51.308;5.624;2023-02-26T19:28:04;1.90;98.50
7196;DHT22;3639;51.308;5.624;2023-02-26T19:30:30;1.90;98.60
7196;DHT22;3639;51.308;5.624;2023-02-26T19:32:56;1.90;98.60
7196;DHT22;3639;51.308;5.624;2023-02-26T19:35:22;2.00;98.70
7196;DHT22;3639;51.308;5.624;2023-02-26T19:37:52;2.00;98.60
7196;DHT22;3639;51.308;5.624;2023-02-26T19:40:18;2.10;98.70
7196;DHT22;3639;51.308;5.624;2023-02-26T19:42:45;2.10;98.70
7196;DHT22;3639;51.308;5.624;2023-02-26T19:45:11;2.10;98.70
7196;DHT22;3639;51.308;5.624;2023-02-26T19:47:38;2.20;98.80